Terminal Aerodrome Forecast
Issued by NWS Green Bay, WI

Home | Current Version | Previous Version | Text Only | Print | Product List | Glossary On
Versions: 1 2 3 4 5 6 7 8 9 10 11 12 13 14 15 16 17 18 19 20 21
000
FTUS43 KGRB 250525
TAFGRB
TAF
KGRB 250525Z 2506/2606 01009KT P6SM SCT014 BKN080
      TEMPO 2506/2510 BKN014
     FM251000 01008KT P6SM BKN015
     FM251800 04011KT P6SM FEW020 BKN060
     FM252200 04010KT P6SM SCT100
     FM260100 06006KT P6SM SCT150=

USA.gov is the U.S. government's official web portal to all federal, state and local government web resources and services.